Time;durP1;ratioP1;P1;durP2;ratioP2;P2;SDS_P1;SDS_P2;PMS_P1;PMS_P2;Temp;Humidity;BMP_temperature;BMP_pressure;BME280_temperature;BME280_humidity;BME280_pressure;Samples;Min_cycle;Max_cycle;Signal;HPM_P1;HPM_P2
2021/06/27 00:01:48;;;;;;;15.30;13.68;;;;;;;;;;5030277;28;20044;-69
2021/06/27 00:04:14;;;;;;;13.80;12.45;;;;;;;;;;5027949;28;20033;-68
2021/06/27 00:06:40;;;;;;;13.63;12.32;;;;;;;;;;5030275;28;20030;-68
2021/06/27 00:09:05;;;;;;;13.00;11.70;;;;;;;;;;5030665;28;20033;-67
2021/06/27 00:11:31;;;;;;;14.70;13.50;;;;;;;;;;5029858;28;20040;-69
2021/06/27 00:13:56;;;;;;;13.43;12.32;;;;;;;;;;5029453;28;20129;-69
2021/06/27 00:16:21;;;;;;;13.68;12.57;;;;;;;;;;5018793;28;20045;-68
2021/06/27 00:18:47;;;;;;;16.15;14.77;;;;;;;;;;5029572;28;20030;-68
2021/06/27 00:21:13;;;;;;;14.45;12.98;;;;;;;;;;5031859;28;20028;-69
2021/06/27 00:23:40;;;;;;;13.85;12.65;;;;;;;;;;5028221;28;20092;-69
2021/06/27 00:26:07;;;;;;;13.23;12.23;;;;;;;;;;5029388;28;20368;-69
2021/06/27 00:28:32;;;;;;;13.50;12.23;;;;;;;;;;5028274;28;20037;-69
2021/06/27 00:30:59;;;;;;;13.88;12.68;;;;;;;;;;5029810;28;20038;-69
2021/06/27 00:33:25;;;;;;;15.20;13.85;;;;;;;;;;5029385;28;20021;-69
2021/06/27 00:35:50;;;;;;;13.85;12.68;;;;;;;;;;5030249;28;20116;-69
2021/06/27 00:38:16;;;;;;;12.98;11.88;;;;;;;;;;5028380;28;20065;-69
2021/06/27 00:40:42;;;;;;;13.48;12.38;;;;;;;;;;5029578;28;20029;-69
2021/06/27 00:43:07;;;;;;;13.30;12.30;;;;;;;;;;5028611;28;20025;-69
2021/06/27 00:45:34;;;;;;;13.30;12.10;;;;;;;;;;5029399;28;20025;-69
2021/06/27 00:48:00;;;;;;;12.77;11.00;;;;;;;;;;5031376;28;20029;-70
2021/06/27 00:50:27;;;;;;;12.02;10.95;;;;;;;;;;5027905;28;20025;-69
2021/06/27 00:52:52;;;;;;;12.90;11.77;;;;;;;;;;5028937;28;20073;-69
2021/06/27 00:55:18;;;;;;;9.98;9.25;;;;;;;;;;5029217;28;20064;-69
2021/06/27 00:57:44;;;;;;;9.23;8.52;;;;;;;;;;5027364;28;20033;-69
2021/06/27 01:00:13;;;;;;;9.48;8.73;;;;;;;;;;5030788;28;20689;-69
2021/06/27 01:02:39;;;;;;;7.72;7.03;;;;;;;;;;5028749;28;20041;-69
2021/06/27 01:05:06;;;;;;;7.80;7.18;;;;;;;;;;5029357;28;20033;-69
2021/06/27 01:07:31;;;;;;;7.68;7.18;;;;;;;;;;5028905;28;20458;-70
2021/06/27 01:09:56;;;;;;;7.75;7.15;;;;;;;;;;5029046;28;20017;-69
2021/06/27 01:12:22;;;;;;;6.85;6.35;;;;;;;;;;5028149;28;20025;-70
2021/06/27 01:14:48;;;;;;;7.03;6.43;;;;;;;;;;5030909;28;20388;-69
2021/06/27 01:17:13;;;;;;;7.13;6.63;;;;;;;;;;5028902;28;20116;-69
2021/06/27 01:19:38;;;;;;;6.97;6.45;;;;;;;;;;5029050;28;20128;-68
2021/06/27 01:22:04;;;;;;;6.70;6.22;;;;;;;;;;5028839;28;20065;-69
2021/06/27 01:24:29;;;;;;;6.57;6.07;;;;;;;;;;5028323;28;20048;-69
2021/06/27 01:26:54;;;;;;;6.60;6.00;;;;;;;;;;5028862;28;20017;-68
2021/06/27 01:29:20;;;;;;;6.25;5.75;;;;;;;;;;5028682;28;20569;-69
2021/06/27 01:31:45;;;;;;;6.20;5.80;;;;;;;;;;5028807;28;20056;-69
2021/06/27 01:34:11;;;;;;;6.95;6.32;;;;;;;;;;5028201;28;20029;-70
2021/06/27 01:36:36;;;;;;;5.55;5.13;;;;;;;;;;5027356;28;20026;-69
2021/06/27 01:39:01;;;;;;;6.10;5.57;;;;;;;;;;5030503;28;20029;-68
2021/06/27 01:41:27;;;;;;;5.95;5.45;;;;;;;;;;5028227;28;20026;-69
2021/06/27 01:43:52;;;;;;;6.65;6.15;;;;;;;;;;5026572;28;20132;-69
2021/06/27 01:46:18;;;;;;;6.57;6.00;;;;;;;;;;5028566;28;20033;-68
2021/06/27 01:48:43;;;;;;;6.72;6.22;;;;;;;;;;5028173;28;20029;-68
2021/06/27 01:51:09;;;;;;;6.03;5.53;;;;;;;;;;5030435;28;20712;-68
2021/06/27 01:53:36;;;;;;;6.15;5.60;;;;;;;;;;5026501;28;20606;-68
2021/06/27 01:56:06;;;;;;;6.57;5.97;;;;;;;;;;5028213;28;20057;-69
2021/06/27 01:58:32;;;;;;;7.97;6.15;;;;;;;;;;5027656;28;21785;-68
2021/06/27 02:00:58;;;;;;;5.65;5.15;;;;;;;;;;5028190;28;20033;-68
2021/06/27 02:03:23;;;;;;;6.63;5.78;;;;;;;;;;5027855;28;20525;-68
2021/06/27 02:05:49;;;;;;;5.90;5.40;;;;;;;;;;5030350;28;20088;-69
2021/06/27 02:08:14;;;;;;;5.47;5.00;;;;;;;;;;5027064;28;20045;-69
2021/06/27 02:10:40;;;;;;;5.82;5.35;;;;;;;;;;5028372;28;20406;-67
2021/06/27 02:13:05;;;;;;;5.57;4.85;;;;;;;;;;5027434;28;20057;-68
2021/06/27 02:15:30;;;;;;;6.10;5.68;;;;;;;;;;5028178;28;20079;-68
2021/06/27 02:18:02;;;;;;;5.55;5.10;;;;;;;;;;5029018;28;20498;-68
2021/06/27 02:20:27;;;;;;;6.82;6.05;;;;;;;;;;5027896;28;20535;-68
2021/06/27 02:22:53;;;;;;;5.05;4.70;;;;;;;;;;5026311;28;20069;-68
2021/06/27 02:25:18;;;;;;;5.50;5.10;;;;;;;;;;5027438;28;20483;-67
2021/06/27 02:27:43;;;;;;;6.40;5.95;;;;;;;;;;5027212;28;20042;-68
2021/06/27 02:30:10;;;;;;;5.85;5.35;;;;;;;;;;5033987;28;20509;-67
2021/06/27 02:32:35;;;;;;;5.32;4.93;;;;;;;;;;5031478;28;20095;-67
2021/06/27 02:35:00;;;;;;;5.45;5.05;;;;;;;;;;5031787;28;20045;-68
2021/06/27 02:37:25;;;;;;;6.07;5.57;;;;;;;;;;5032034;28;20030;-68
2021/06/27 02:39:51;;;;;;;5.78;5.35;;;;;;;;;;5032063;28;20176;-69
2021/06/27 02:42:16;;;;;;;5.75;5.25;;;;;;;;;;5032915;28;20017;-68
2021/06/27 02:44:41;;;;;;;6.25;5.75;;;;;;;;;;5031719;28;20065;-68
2021/06/27 02:47:06;;;;;;;5.88;5.38;;;;;;;;;;5031794;28;20033;-68
2021/06/27 02:49:32;;;;;;;6.22;5.80;;;;;;;;;;5031606;28;20029;-68
2021/06/27 02:51:57;;;;;;;5.63;5.13;;;;;;;;;;5031591;28;20026;-68
2021/06/27 02:54:22;;;;;;;6.35;5.78;;;;;;;;;;5031393;28;20501;-68
2021/06/27 02:56:47;;;;;;;6.30;5.78;;;;;;;;;;5033001;28;20577;-68
2021/06/27 02:59:13;;;;;;;6.60;6.03;;;;;;;;;;5031183;28;20088;-67
2021/06/27 03:01:38;;;;;;;5.70;5.30;;;;;;;;;;5030097;28;20411;-69
2021/06/27 03:04:03;;;;;;;6.00;5.50;;;;;;;;;;5029809;28;20475;-67
2021/06/27 03:06:28;;;;;;;6.00;5.50;;;;;;;;;;5030185;28;20026;-67
2021/06/27 03:08:54;;;;;;;6.20;5.80;;;;;;;;;;5033268;28;20471;-67
2021/06/27 03:11:19;;;;;;;6.47;5.97;;;;;;;;;;5031386;28;20434;-67
2021/06/27 03:13:44;;;;;;;6.30;5.80;;;;;;;;;;5030466;28;20494;-68
2021/06/27 03:16:10;;;;;;;6.75;6.18;;;;;;;;;;5031259;28;20041;-68
2021/06/27 03:18:35;;;;;;;5.93;5.20;;;;;;;;;;5031279;28;20032;-67
2021/06/27 03:21:01;;;;;;;5.75;5.18;;;;;;;;;;5033025;28;20009;-68
2021/06/27 03:23:27;;;;;;;6.60;5.75;;;;;;;;;;5029286;28;20566;-69
2021/06/27 03:25:55;;;;;;;6.43;5.93;;;;;;;;;;5031061;28;20025;-69
2021/06/27 03:28:20;;;;;;;6.15;5.75;;;;;;;;;;5030608;28;20053;-68
2021/06/27 03:30:46;;;;;;;6.63;6.15;;;;;;;;;;5029607;28;20018;-68
2021/06/27 03:33:11;;;;;;;6.40;6.00;;;;;;;;;;5032372;28;20025;-68
2021/06/27 03:35:37;;;;;;;6.57;6.07;;;;;;;;;;5030684;28;20045;-68
2021/06/27 03:39:05;;;;;;;6.65;6.15;;;;;;;;;;5030755;28;20128;-68
2021/06/27 03:40:57;;;;;;;7.35;6.75;;;;;;;;;;5020759;28;20120;-68
2021/06/27 03:43:22;;;;;;;6.35;5.85;;;;;;;;;;5029956;28;20125;-68
2021/06/27 03:45:47;;;;;;;6.63;5.93;;;;;;;;;;5030622;28;20037;-69
2021/06/27 03:48:12;;;;;;;6.28;5.68;;;;;;;;;;5032438;28;20080;-69
2021/06/27 03:50:38;;;;;;;5.25;4.85;;;;;;;;;;5030402;28;20044;-68
2021/06/27 03:53:03;;;;;;;5.38;4.88;;;;;;;;;;5030176;28;20045;-69
2021/06/27 03:55:29;;;;;;;4.88;4.45;;;;;;;;;;5030176;28;20443;-68
2021/06/27 03:57:55;;;;;;;5.10;4.70;;;;;;;;;;5029826;28;20040;-69
2021/06/27 04:00:20;;;;;;;4.47;4.18;;;;;;;;;;5032194;28;20096;-68
2021/06/27 04:02:45;;;;;;;4.10;3.70;;;;;;;;;;5030016;28;20041;-67
2021/06/27 04:05:12;;;;;;;4.18;3.88;;;;;;;;;;5030132;28;20439;-68
2021/06/27 04:07:37;;;;;;;3.88;3.58;;;;;;;;;;5028830;28;20034;-68
2021/06/27 04:10:03;;;;;;;3.50;3.30;;;;;;;;;;5030162;28;20125;-68
2021/06/27 04:12:28;;;;;;;3.40;3.00;;;;;;;;;;5027928;28;20021;-69
2021/06/27 04:14:53;;;;;;;4.47;3.30;;;;;;;;;;5031881;28;20430;-69
2021/06/27 04:17:22;;;;;;;3.20;3.00;;;;;;;;;;5029780;28;20411;-69
2021/06/27 04:19:47;;;;;;;2.92;2.72;;;;;;;;;;5028855;28;20399;-69
2021/06/27 04:22:12;;;;;;;2.83;2.63;;;;;;;;;;5028227;28;20029;-68
2021/06/27 04:24:38;;;;;;;2.60;2.40;;;;;;;;;;5029922;28;20025;-69
2021/06/27 04:27:03;;;;;;;2.90;2.70;;;;;;;;;;5031474;28;20018;-69
2021/06/27 04:29:28;;;;;;;5.35;2.83;;;;;;;;;;5029694;28;20447;-69
2021/06/27 04:31:54;;;;;;;2.50;2.30;;;;;;;;;;5029384;28;20112;-69
2021/06/27 04:34:20;;;;;;;1.83;1.73;;;;;;;;;;5029293;28;20691;-71
2021/06/27 04:36:46;;;;;;;3.00;2.20;;;;;;;;;;5029722;28;20330;-69
2021/06/27 04:39:14;;;;;;;1.90;1.80;;;;;;;;;;5030256;28;20021;-69
2021/06/27 04:41:39;;;;;;;1.92;1.60;;;;;;;;;;5044877;28;20048;-69
2021/06/27 04:44:04;;;;;;;3.03;1.80;;;;;;;;;;5028674;28;20033;-69
2021/06/27 04:46:29;;;;;;;1.47;1.30;;;;;;;;;;5029488;28;20649;-69
2021/06/27 04:48:55;;;;;;;1.73;1.50;;;;;;;;;;5026946;28;20996;-70
2021/06/27 04:51:21;;;;;;;1.60;1.50;;;;;;;;;;5031037;28;20456;-69
2021/06/27 04:53:46;;;;;;;1.50;1.40;;;;;;;;;;5028945;28;20048;-69
2021/06/27 04:56:11;;;;;;;1.42;1.30;;;;;;;;;;5029408;28;20033;-69
2021/06/27 04:58:36;;;;;;;1.55;1.45;;;;;;;;;;5028615;28;20046;-69
2021/06/27 05:01:01;;;;;;;1.65;1.38;;;;;;;;;;5028930;28;20052;-69
2021/06/27 05:03:27;;;;;;;1.38;1.23;;;;;;;;;;5028770;28;20028;-69
2021/06/27 05:05:52;;;;;;;1.30;1.20;;;;;;;;;;5031157;28;20037;-69
2021/06/27 05:08:17;;;;;;;1.37;1.17;;;;;;;;;;5029029;28;20307;-69
2021/06/27 05:10:42;;;;;;;1.20;1.20;;;;;;;;;;5028873;28;20480;-70
2021/06/27 05:13:08;;;;;;;2.38;1.25;;;;;;;;;;5026338;28;20686;-70
2021/06/27 05:15:33;;;;;;;0.90;0.90;;;;;;;;;;5028587;28;20099;-69
2021/06/27 05:17:58;;;;;;;1.20;1.10;;;;;;;;;;5029331;28;20017;-69
2021/06/27 05:20:24;;;;;;;1.40;1.00;;;;;;;;;;5027523;28;20287;-70
2021/06/27 05:22:49;;;;;;;1.20;1.10;;;;;;;;;;5027046;28;20480;-70
2021/06/27 05:25:14;;;;;;;0.70;0.70;;;;;;;;;;5028608;28;20104;-69
2021/06/27 05:27:39;;;;;;;0.80;0.80;;;;;;;;;;5028348;28;20395;-69
2021/06/27 05:30:06;;;;;;;1.17;1.05;;;;;;;;;;5030578;28;20127;-69
2021/06/27 05:32:31;;;;;;;2.50;1.00;;;;;;;;;;5027006;28;20061;-69
2021/06/27 05:34:57;;;;;;;1.10;1.10;;;;;;;;;;5028751;28;20045;-69
2021/06/27 05:37:22;;;;;;;1.33;0.90;;;;;;;;;;5028743;28;20041;-70
2021/06/27 05:39:47;;;;;;;0.80;0.80;;;;;;;;;;5043967;28;20267;-69
2021/06/27 05:42:13;;;;;;;1.90;1.00;;;;;;;;;;5030002;28;20052;-69
2021/06/27 05:44:38;;;;;;;0.93;0.93;;;;;;;;;;5027814;28;20272;-69
2021/06/27 05:47:03;;;;;;;0.90;0.90;;;;;;;;;;5028464;28;20511;-70
2021/06/27 05:49:29;;;;;;;1.50;1.00;;;;;;;;;;5028498;28;20307;-69
2021/06/27 05:51:54;;;;;;;2.25;1.00;;;;;;;;;;5028714;28;20065;-69
2021/06/27 05:54:19;;;;;;;2.65;1.10;;;;;;;;;;5029947;28;20021;-70
2021/06/27 05:56:44;;;;;;;0.90;0.90;;;;;;;;;;5028495;28;20076;-69
2021/06/27 05:59:10;;;;;;;1.13;1.00;;;;;;;;;;5027741;28;20447;-70
2021/06/27 06:01:35;;;;;;;1.30;1.20;;;;;;;;;;5028031;28;20026;-69
2021/06/27 06:04:00;;;;;;;0.88;0.88;;;;;;;;;;5026018;28;20124;-69
2021/06/27 06:06:25;;;;;;;1.23;1.13;;;;;;;;;;5026910;28;20021;-70
2021/06/27 06:08:51;;;;;;;2.25;1.00;;;;;;;;;;5030143;28;20350;-70
2021/06/27 06:11:17;;;;;;;1.77;1.00;;;;;;;;;;5028233;28;20037;-69
2021/06/27 06:13:42;;;;;;;1.65;1.02;;;;;;;;;;5027379;28;20040;-70
2021/06/27 06:16:08;;;;;;;1.08;1.08;;;;;;;;;;5028184;28;20121;-70
2021/06/27 06:18:34;;;;;;;1.10;1.00;;;;;;;;;;5028375;28;20464;-68
2021/06/27 06:20:59;;;;;;;3.00;1.35;;;;;;;;;;5030164;28;20510;-69
2021/06/27 06:23:25;;;;;;;1.02;1.02;;;;;;;;;;5027832;28;20116;-69
2021/06/27 06:25:50;;;;;;;0.90;0.90;;;;;;;;;;5028173;28;20494;-69
2021/06/27 06:28:15;;;;;;;1.40;0.80;;;;;;;;;;5027438;28;20037;-67
2021/06/27 06:30:41;;;;;;;1.53;1.10;;;;;;;;;;5027878;28;20108;-70
2021/06/27 06:33:10;;;;;;;1.55;1.10;;;;;;;;;;5029479;28;20248;-69
2021/06/27 06:35:39;;;;;;;1.73;1.40;;;;;;;;;;5027984;28;20064;-69
2021/06/27 06:38:04;;;;;;;1.30;1.00;;;;;;;;;;5028009;28;20061;-69
2021/06/27 06:40:30;;;;;;;1.67;1.58;;;;;;;;;;5027973;28;20069;-69
2021/06/27 06:42:55;;;;;;;1.48;1.30;;;;;;;;;;5026594;28;20120;-69
2021/06/27 06:45:20;;;;;;;1.50;1.40;;;;;;;;;;5029794;28;20093;-69
2021/06/27 06:47:45;;;;;;;1.63;1.08;;;;;;;;;;5026659;28;20280;-70
2021/06/27 06:50:11;;;;;;;1.50;1.30;;;;;;;;;;5028205;28;20372;-70
2021/06/27 06:52:36;;;;;;;1.60;1.50;;;;;;;;;;5026322;28;20714;-70
2021/06/27 06:55:01;;;;;;;1.10;1.10;;;;;;;;;;5027933;28;20030;-70
2021/06/27 06:57:27;;;;;;;1.33;1.23;;;;;;;;;;5027919;28;20279;-70
2021/06/27 06:59:52;;;;;;;1.27;1.17;;;;;;;;;;5029345;28;20052;-69
2021/06/27 07:02:17;;;;;;;1.20;1.10;;;;;;;;;;5027716;28;20334;-71
2021/06/27 07:04:42;;;;;;;1.13;1.07;;;;;;;;;;5027994;28;20726;-70
2021/06/27 07:07:07;;;;;;;1.40;1.30;;;;;;;;;;5027968;28;20268;-69
2021/06/27 07:09:33;;;;;;;1.20;1.10;;;;;;;;;;5026566;28;20280;-70
2021/06/27 07:11:58;;;;;;;1.63;1.00;;;;;;;;;;5030019;28;20041;-70
2021/06/27 07:14:23;;;;;;;0.90;0.90;;;;;;;;;;5029022;28;20110;-70
2021/06/27 07:16:48;;;;;;;1.03;1.00;;;;;;;;;;5031410;28;20744;-69
2021/06/27 07:19:13;;;;;;;1.20;1.10;;;;;;;;;;5031479;28;20682;-71
2021/06/27 07:21:40;;;;;;;1.47;1.20;;;;;;;;;;5030128;28;20029;-70
2021/06/27 07:24:05;;;;;;;1.45;1.35;;;;;;;;;;5032789;28;20410;-70
2021/06/27 07:26:31;;;;;;;0.90;0.90;;;;;;;;;;5030948;28;20124;-71
2021/06/27 07:28:56;;;;;;;0.93;0.93;;;;;;;;;;5030606;28;20119;-71
2021/06/27 07:31:21;;;;;;;0.93;0.93;;;;;;;;;;5029732;28;20032;-69
2021/06/27 07:33:47;;;;;;;1.27;0.95;;;;;;;;;;5030528;28;20593;-71
2021/06/27 07:36:12;;;;;;;0.87;0.87;;;;;;;;;;5033047;28;20025;-70
2021/06/27 07:38:38;;;;;;;1.50;1.17;;;;;;;;;;5029659;28;20268;-70
2021/06/27 07:41:03;;;;;;;0.80;0.80;;;;;;;;;;5030745;28;20037;-71
2021/06/27 07:43:29;;;;;;;0.93;0.80;;;;;;;;;;5029806;28;20276;-71
2021/06/27 07:45:54;;;;;;;0.70;0.70;;;;;;;;;;5030594;28;20036;-71
2021/06/27 07:48:20;;;;;;;0.90;0.70;;;;;;;;;;5032542;28;20021;-70
2021/06/27 07:50:45;;;;;;;2.17;0.70;;;;;;;;;;5029411;28;20472;-70
2021/06/27 07:53:10;;;;;;;1.20;1.10;;;;;;;;;;5029844;28;20033;-70
2021/06/27 07:55:36;;;;;;;0.77;0.77;;;;;;;;;;5029264;28;20144;-70
2021/06/27 07:58:01;;;;;;;0.90;0.75;;;;;;;;;;5030088;28;20714;-70
2021/06/27 08:00:29;;;;;;;1.00;0.98;;;;;;;;;;5025813;28;20022;-72
2021/06/27 08:02:55;;;;;;;0.95;0.95;;;;;;;;;;5030153;28;20010;-70
2021/06/27 08:05:20;;;;;;;1.25;1.15;;;;;;;;;;5028939;28;20045;-70
2021/06/27 08:07:45;;;;;;;1.15;1.05;;;;;;;;;;5030287;28;20041;-70
2021/06/27 08:10:10;;;;;;;1.23;0.87;;;;;;;;;;5030381;28;20450;-70
2021/06/27 08:12:36;;;;;;;0.93;0.93;;;;;;;;;;5029418;28;20832;-70
2021/06/27 08:15:02;;;;;;;2.67;1.08;;;;;;;;;;5031562;28;20013;-70
2021/06/27 08:17:28;;;;;;;1.20;0.70;;;;;;;;;;5029853;28;20458;-70
2021/06/27 08:19:53;;;;;;;1.77;0.90;;;;;;;;;;5030300;28;20037;-70
2021/06/27 08:22:18;;;;;;;0.60;0.60;;;;;;;;;;5029518;28;20569;-69
2021/06/27 08:24:45;;;;;;;1.43;0.80;;;;;;;;;;5030179;28;20021;-69
2021/06/27 08:27:10;;;;;;;1.05;0.60;;;;;;;;;;5031145;28;20749;-69
2021/06/27 08:29:36;;;;;;;3.15;0.80;;;;;;;;;;5029433;28;20037;-68
2021/06/27 08:32:02;;;;;;;0.90;0.90;;;;;;;;;;5029755;28;20451;-69
2021/06/27 08:34:27;;;;;;;0.70;0.70;;;;;;;;;;5029216;28;20095;-69
2021/06/27 08:36:52;;;;;;;1.20;0.80;;;;;;;;;;5029703;28;20041;-68
2021/06/27 08:39:18;;;;;;;0.80;0.80;;;;;;;;;;5031635;28;20087;-71
2021/06/27 08:41:43;;;;;;;2.47;0.63;;;;;;;;;;5029741;28;20273;-69
2021/06/27 08:44:10;;;;;;;0.70;0.70;;;;;;;;;;5028974;28;20272;-68
2021/06/27 08:46:36;;;;;;;1.65;1.02;;;;;;;;;;5029335;28;20040;-68
2021/06/27 08:49:02;;;;;;;0.70;0.60;;;;;;;;;;5029297;28;20044;-69
2021/06/27 08:51:27;;;;;;;0.73;0.70;;;;;;;;;;5027993;28;20017;-68
2021/06/27 08:53:52;;;;;;;0.80;0.80;;;;;;;;;;5031014;28;20052;-70
2021/06/27 08:56:17;;;;;;;0.90;0.90;;;;;;;;;;5027920;28;20509;-70
2021/06/27 08:58:44;;;;;;;1.15;1.10;;;;;;;;;;5028959;28;20276;-69
2021/06/27 09:01:13;;;;;;;1.20;1.02;;;;;;;;;;5029107;28;20022;-69
2021/06/27 09:03:39;;;;;;;1.02;0.82;;;;;;;;;;5028628;28;20021;-69
2021/06/27 09:06:05;;;;;;;0.97;0.97;;;;;;;;;;5030883;28;20024;-69
2021/06/27 09:08:30;;;;;;;1.20;1.08;;;;;;;;;;5029011;28;20304;-69
2021/06/27 09:10:55;;;;;;;0.60;0.60;;;;;;;;;;5029136;28;20121;-70
2021/06/27 09:13:40;;;;;;;0.90;0.90;;;;;;;;;;5028364;28;20032;-70
2021/06/27 09:16:19;;;;;;;2.25;1.45;;;;;;;;;;5029295;28;20132;-69
2021/06/27 09:18:45;;;;;;;0.80;0.80;;;;;;;;;;5028910;28;20086;-70
2021/06/27 09:21:10;;;;;;;1.20;1.10;;;;;;;;;;5030722;28;20029;-70
2021/06/27 09:23:37;;;;;;;0.97;0.97;;;;;;;;;;5028289;28;20110;-70
2021/06/27 09:26:03;;;;;;;0.98;0.98;;;;;;;;;;5028696;28;20649;-69
2021/06/27 09:28:45;;;;;;;0.98;0.90;;;;;;;;;;5028130;28;20091;-70
2021/06/27 09:31:10;;;;;;;0.85;0.85;;;;;;;;;;5020513;28;20026;-69
2021/06/27 09:33:36;;;;;;;0.95;0.90;;;;;;;;;;5028240;28;20055;-69
2021/06/27 09:36:03;;;;;;;1.17;1.10;;;;;;;;;;5030393;28;20021;-70
2021/06/27 09:38:31;;;;;;;1.42;1.33;;;;;;;;;;5027206;28;20036;-71
2021/06/27 09:40:56;;;;;;;1.25;1.15;;;;;;;;;;5027597;28;20064;-70
2021/06/27 09:43:22;;;;;;;1.23;1.20;;;;;;;;;;5028001;28;20096;-69
2021/06/27 09:45:48;;;;;;;1.40;1.30;;;;;;;;;;5027867;28;20041;-71
2021/06/27 09:48:14;;;;;;;1.50;1.40;;;;;;;;;;5030164;28;20033;-69
2021/06/27 09:50:39;;;;;;;1.30;1.30;;;;;;;;;;5028230;28;20025;-70
2021/06/27 09:53:05;;;;;;;1.30;1.20;;;;;;;;;;5028072;28;20131;-70
2021/06/27 09:55:30;;;;;;;1.52;1.30;;;;;;;;;;5028320;28;20038;-71
2021/06/27 09:58:14;;;;;;;1.35;1.17;;;;;;;;;;5028078;28;20033;-70
2021/06/27 10:00:40;;;;;;;1.33;1.30;;;;;;;;;;5027674;28;20064;-69
2021/06/27 10:03:07;;;;;;;1.20;1.20;;;;;;;;;;5029842;28;20142;-69
2021/06/27 10:05:35;;;;;;;1.50;1.40;;;;;;;;;;5028476;28;20117;-69
2021/06/27 10:08:00;;;;;;;1.60;1.50;;;;;;;;;;5028217;28;20037;-69
2021/06/27 10:10:25;;;;;;;1.30;1.30;;;;;;;;;;5027475;28;20052;-71
2021/06/27 10:12:51;;;;;;;1.40;1.30;;;;;;;;;;5027577;28;20261;-71
2021/06/27 10:15:16;;;;;;;8.65;1.33;;;;;;;;;;5029770;28;20040;-70
2021/06/27 10:17:42;;;;;;;1.38;1.20;;;;;;;;;;5026718;28;20037;-71
2021/06/27 10:20:11;;;;;;;1.38;1.27;;;;;;;;;;5028070;28;20061;-70
2021/06/27 10:22:36;;;;;;;1.35;1.30;;;;;;;;;;5027843;28;20113;-69
2021/06/27 10:25:05;;;;;;;1.55;1.45;;;;;;;;;;5026695;28;20105;-72
2021/06/27 10:27:32;;;;;;;1.38;1.27;;;;;;;;;;5026572;28;20026;-70
2021/06/27 10:29:59;;;;;;;1.40;1.30;;;;;;;;;;5029646;28;20057;-70
2021/06/27 10:32:24;;;;;;;1.50;1.40;;;;;;;;;;5027535;28;20234;-70
2021/06/27 10:34:53;;;;;;;1.50;1.40;;;;;;;;;;5026489;28;20526;-69
2021/06/27 10:37:21;;;;;;;2.08;1.27;;;;;;;;;;5027813;28;20025;-72
2021/06/27 10:39:56;;;;;;;1.35;1.25;;;;;;;;;;5028138;28;20033;-71
2021/06/27 10:42:41;;;;;;;2.10;1.25;;;;;;;;;;5028436;28;20585;-71
2021/06/27 10:45:07;;;;;;;0.93;0.93;;;;;;;;;;5026424;28;20043;-70
2021/06/27 10:47:33;;;;;;;1.00;1.00;;;;;;;;;;5027582;28;20022;-70
2021/06/27 10:50:00;;;;;;;1.27;1.10;;;;;;;;;;5031052;28;20120;-70
2021/06/27 10:52:25;;;;;;;0.80;0.80;;;;;;;;;;5031209;28;20037;-70
2021/06/27 10:55:13;;;;;;;1.48;1.00;;;;;;;;;;5031900;28;20380;-70
2021/06/27 10:57:57;;;;;;;1.05;0.95;;;;;;;;;;5025755;28;20116;-70
2021/06/27 11:00:23;;;;;;;1.33;0.90;;;;;;;;;;5031464;28;20072;-70
2021/06/27 11:02:49;;;;;;;1.25;1.15;;;;;;;;;;5030561;28;20036;-70
2021/06/27 11:05:27;;;;;;;1.33;1.20;;;;;;;;;;5031036;28;20034;-70
2021/06/27 11:07:52;;;;;;;2.03;0.90;;;;;;;;;;5031205;28;20033;-70
2021/06/27 11:10:18;;;;;;;1.00;1.00;;;;;;;;;;5031407;28;20483;-70
2021/06/27 11:13:05;;;;;;;1.08;0.90;;;;;;;;;;5029549;28;20041;-70
2021/06/27 11:15:31;;;;;;;1.20;1.10;;;;;;;;;;5029565;28;20385;-70
2021/06/27 11:17:58;;;;;;;1.42;1.10;;;;;;;;;;5032820;28;20029;-70
2021/06/27 11:20:23;;;;;;;2.22;0.90;;;;;;;;;;5031265;28;20088;-71
2021/06/27 11:22:50;;;;;;;1.00;0.73;;;;;;;;;;5030787;28;20029;-70
2021/06/27 11:25:33;;;;;;;1.05;1.02;;;;;;;;;;5030877;28;20442;-70
2021/06/27 11:27:59;;;;;;;1.05;1.05;;;;;;;;;;5031063;28;20046;-70
2021/06/27 11:30:26;;;;;;;0.98;0.88;;;;;;;;;;5032555;28;20018;-70
2021/06/27 11:32:52;;;;;;;1.13;1.13;;;;;;;;;;5030726;28;20068;-70
2021/06/27 11:35:36;;;;;;;0.73;0.73;;;;;;;;;;5031157;28;20041;-70
2021/06/27 11:38:01;;;;;;;0.90;0.90;;;;;;;;;;5030770;28;20084;-69
2021/06/27 11:40:39;;;;;;;1.20;1.05;;;;;;;;;;5030945;28;20691;-70
2021/06/27 11:43:05;;;;;;;1.10;1.00;;;;;;;;;;5029948;28;20103;-71
2021/06/27 11:45:30;;;;;;;0.80;0.80;;;;;;;;;;5030520;28;20033;-70
2021/06/27 11:47:56;;;;;;;0.80;0.80;;;;;;;;;;5032426;28;20276;-69
2021/06/27 11:50:24;;;;;;;0.93;0.90;;;;;;;;;;5029321;28;20076;-70
2021/06/27 11:52:51;;;;;;;0.90;0.90;;;;;;;;;;5029991;28;20121;-70
2021/06/27 11:55:17;;;;;;;0.75;0.75;;;;;;;;;;5029113;28;20124;-70
2021/06/27 11:57:42;;;;;;;1.25;1.10;;;;;;;;;;5030482;28;20121;-70
2021/06/27 12:00:12;;;;;;;1.77;1.20;;;;;;;;;;5029569;28;20497;-70
2021/06/27 12:02:37;;;;;;;1.60;1.50;;;;;;;;;;5030093;28;20096;-71
2021/06/27 12:05:07;;;;;;;1.00;1.00;;;;;;;;;;5030219;28;20030;-70
2021/06/27 12:07:42;;;;;;;2.45;1.42;;;;;;;;;;5030368;28;20025;-70
2021/06/27 12:10:11;;;;;;;1.10;1.00;;;;;;;;;;5030344;28;20116;-69
2021/06/27 12:12:41;;;;;;;1.45;1.35;;;;;;;;;;5028382;28;20026;-69
2021/06/27 12:15:08;;;;;;;1.15;1.15;;;;;;;;;;5031364;28;20030;-70
2021/06/27 12:17:33;;;;;;;0.95;0.95;;;;;;;;;;5029994;28;20034;-70
2021/06/27 12:19:58;;;;;;;1.00;1.00;;;;;;;;;;5030077;28;20084;-70
2021/06/27 12:22:25;;;;;;;1.17;1.07;;;;;;;;;;5029699;28;20036;-70
2021/06/27 12:24:50;;;;;;;2.05;1.10;;;;;;;;;;5029830;28;20729;-69
2021/06/27 12:27:15;;;;;;;1.48;0.98;;;;;;;;;;5030544;28;20040;-69
2021/06/27 12:29:53;;;;;;;1.13;1.13;;;;;;;;;;5029547;28;20049;-70
2021/06/27 12:32:19;;;;;;;1.30;1.20;;;;;;;;;;5028897;28;20045;-70
2021/06/27 12:34:45;;;;;;;1.50;1.40;;;;;;;;;;5029709;28;20025;-69
2021/06/27 12:37:10;;;;;;;0.88;0.88;;;;;;;;;;5028091;28;20029;-70
2021/06/27 12:39:37;;;;;;;1.17;1.17;;;;;;;;;;5029680;28;20021;-70
2021/06/27 12:42:09;;;;;;;1.40;1.30;;;;;;;;;;5031521;28;20463;-70
2021/06/27 12:44:34;;;;;;;1.30;1.23;;;;;;;;;;5029168;28;20361;-71
2021/06/27 12:46:59;;;;;;;1.10;1.10;;;;;;;;;;5044422;28;20037;-70
2021/06/27 12:49:29;;;;;;;2.20;1.37;;;;;;;;;;5029384;28;20272;-70
2021/06/27 12:51:58;;;;;;;1.45;1.35;;;;;;;;;;5028472;28;20442;-70
2021/06/27 12:54:23;;;;;;;1.40;1.35;;;;;;;;;;5030931;28;20089;-71
2021/06/27 12:57:01;;;;;;;1.47;1.10;;;;;;;;;;5029325;28;20061;-70
2021/06/27 12:59:36;;;;;;;1.73;1.15;;;;;;;;;;5028874;28;20307;-70
2021/06/27 13:02:03;;;;;;;3.00;1.63;;;;;;;;;;5029017;28;20069;-70
2021/06/27 13:04:30;;;;;;;1.98;1.52;;;;;;;;;;5029084;28;20029;-70
2021/06/27 13:06:56;;;;;;;1.60;1.50;;;;;;;;;;5029381;28;20026;-70
2021/06/27 13:09:21;;;;;;;1.55;1.45;;;;;;;;;;5030961;28;20032;-69
2021/06/27 13:12:05;;;;;;;2.20;1.40;;;;;;;;;;5028841;28;20037;-71
2021/06/27 13:14:31;;;;;;;1.50;1.38;;;;;;;;;;5028106;28;20076;-71
2021/06/27 13:17:07;;;;;;;1.60;1.50;;;;;;;;;;5043540;28;20072;-71
2021/06/27 13:19:32;;;;;;;1.65;1.40;;;;;;;;;;5028902;28;20026;-70
2021/06/27 13:22:14;;;;;;;2.20;1.30;;;;;;;;;;5028905;28;20048;-71
2021/06/27 13:24:55;;;;;;;1.55;1.45;;;;;;;;;;5028682;28;20272;-71
2021/06/27 13:27:20;;;;;;;;;;;;;;;;;;5030842;28;20171;-70
2021/06/27 13:30:01;;;;;;;3.42;1.40;;;;;;;;;;5028339;28;20036;-71
2021/06/27 13:32:26;;;;;;;1.52;1.42;;;;;;;;;;5027912;28;20402;-71
2021/06/27 13:34:51;;;;;;;3.77;1.13;;;;;;;;;;5028515;28;20048;-71
2021/06/27 13:37:17;;;;;;;1.40;1.40;;;;;;;;;;5028626;28;20033;-71
2021/06/27 13:39:42;;;;;;;2.13;1.50;;;;;;;;;;5028649;28;20021;-70
2021/06/27 13:42:07;;;;;;;2.70;1.40;;;;;;;;;;5030234;28;20032;-70
2021/06/27 13:44:32;;;;;;;1.60;1.50;;;;;;;;;;5028467;28;20520;-70
2021/06/27 13:46:58;;;;;;;1.30;1.30;;;;;;;;;;5027998;28;20523;-70
2021/06/27 13:49:23;;;;;;;1.90;1.70;;;;;;;;;;5028450;28;20041;-70
2021/06/27 13:51:48;;;;;;;1.70;1.60;;;;;;;;;;5028474;28;20044;-70
2021/06/27 13:54:13;;;;;;;1.80;1.70;;;;;;;;;;5028610;28;20027;-69
2021/06/27 13:56:39;;;;;;;1.80;1.70;;;;;;;;;;5028254;28;20318;-70
2021/06/27 13:59:04;;;;;;;1.80;1.70;;;;;;;;;;5028402;28;20505;-70
2021/06/27 14:01:31;;;;;;;1.43;1.33;;;;;;;;;;5027989;28;20042;-71
2021/06/27 14:03:56;;;;;;;2.25;1.60;;;;;;;;;;5027687;28;20314;-70
2021/06/27 14:06:24;;;;;;;1.15;1.15;;;;;;;;;;5029840;28;20089;-70
2021/06/27 14:08:50;;;;;;;2.70;1.85;;;;;;;;;;5028212;28;20061;-70
2021/06/27 14:11:16;;;;;;;1.90;1.70;;;;;;;;;;5026986;28;20099;-71
2021/06/27 14:13:41;;;;;;;1.63;1.52;;;;;;;;;;5027786;28;20490;-70
2021/06/27 14:16:07;;;;;;;1.67;1.63;;;;;;;;;;5026302;28;20088;-70
2021/06/27 14:18:33;;;;;;;1.40;1.40;;;;;;;;;;5026757;28;20060;-72
2021/06/27 14:20:58;;;;;;;2.67;1.50;;;;;;;;;;5030156;28;20024;-71
2021/06/27 14:23:24;;;;;;;1.70;1.60;;;;;;;;;;5028215;28;20033;-71
2021/06/27 14:25:50;;;;;;;2.05;1.50;;;;;;;;;;5032215;28;20260;-71
2021/06/27 14:28:15;;;;;;;1.85;1.75;;;;;;;;;;5031864;28;20029;-71
2021/06/27 14:30:42;;;;;;;2.13;1.55;;;;;;;;;;5032054;28;20533;-71
2021/06/27 14:33:07;;;;;;;1.60;1.50;;;;;;;;;;5048751;28;20087;-71
2021/06/27 14:35:32;;;;;;;1.83;1.47;;;;;;;;;;5030823;28;20037;-71
2021/06/27 14:37:58;;;;;;;1.42;1.33;;;;;;;;;;5031830;28;20478;-71